Terminal Aerodrome Forecast
Issued by NWS

Home | Current Version | Previous Version | Text Only | Print | Product List | Glossary On
Versions: 1 2 3 4 5 6 7 8 9 10 11 12 13 14 15 16 17 18 19 20 21 22 23
470
FTUS43 KLSX 100428 AAA
TAFUIN
TAF AMD
KUIN 100428Z 1004/1024 32014G22KT P6SM OVC025
     FM101000 31010KT P6SM SCT200
     FM102000 29007KT P6SM BKN110
     FM102100 29006KT 6SM -SHSN OVC040=

USA.gov is the U.S. government's official web portal to all federal, state and local government web resources and services.